KODO

Odessa-Schlemeyer Field Airport

Odessa, Texas, USA
METAR KODO 210453Z AUTO 05004KT 10SM CLR 25/20 A3014 RMK AO2 SLP159 T02500200 TSNO
Observed Flight Rules
Aug-21 @ 04:53 UTC (9 hours ago) Visual Flight Rules
Wind Visibility Clouds
50° at 4 knots 10 miles
  • Clear skies
Temperatures Readings
Current 25°C / 77°F
Dewpoint 20°C / 68°F
Humidity 74%
Altimeter 30.14" Hg
Pressure 1015.9 hPa
Elevation 902
METAR KODO 210453Z AUTO 05004KT 10SM CLR 25/20 A3014 RMK AO2 SLP159 T02500200 TSNO
Observed Flight Rules
Aug-21 @ 04:53 UTC
(9 hours ago)
VFR
Wind Visibility
50° at 4 knots 10 miles
Clouds
  • Clear skies
Temperature Dewpoint
25°C / 77°F 20°C / 68°F
Humidity Altimeter Pressure
74% 30.14" Hg 1015.9 hPa